Time;durP1;ratioP1;P1;durP2;ratioP2;P2;SDS_P1;SDS_P2;PMS_P1;PMS_P2;Temp;Humidity;BMP_temperature;BMP_pressure;BME280_temperature;BME280_humidity;BME280_pressure;Samples;Min_cycle;Max_cycle;Signal;HPM_P1;HPM_P2
2022/08/12 00:45:08;;;;;;;9.63;2.22;;;24.60;58.00;;;;;;4941582;29;20205;-75
2022/08/12 00:47:39;;;;;;;5.45;2.20;;;24.60;58.10;;;;;;4929311;28;20669;-75
2022/08/12 00:50:17;;;;;;;4.13;2.10;;;24.60;58.30;;;;;;4934738;28;20195;-75
2022/08/12 00:52:47;;;;;;;3.83;2.28;;;24.50;58.40;;;;;;4940208;28;20223;-77
2022/08/12 00:55:16;;;;;;;4.45;2.42;;;24.50;58.60;;;;;;4939009;28;20194;-75
2022/08/12 00:57:47;;;;;;;6.47;2.38;;;24.50;58.70;;;;;;4933998;28;20190;-74
2022/08/12 01:00:20;;;;;;;6.20;2.42;;;24.40;58.80;;;;;;4935245;28;20672;-76
2022/08/12 01:02:51;;;;;;;6.35;2.40;;;24.40;59.00;;;;;;4937241;28;20218;-75
2022/08/12 01:13:47;;;;;;;7.97;2.45;;;24.20;59.40;;;;;;4937292;28;20190;-75
2022/08/12 01:16:18;;;;;;;8.55;2.63;;;24.20;59.50;;;;;;4937485;29;20190;-76
2022/08/12 01:18:46;;;;;;;4.68;2.35;;;24.10;59.60;;;;;;4937256;29;20723;-76
2022/08/12 01:21:43;;;;;;;4.55;2.47;;;24.10;59.60;;;;;;4931554;29;20195;-75
2022/08/12 01:24:32;;;;;;;4.93;2.63;;;24.10;59.80;;;;;;4929515;28;20207;-75
2022/08/12 01:27:03;;;;;;;4.00;2.40;;;24.00;59.90;;;;;;4937845;28;20566;-77
2022/08/12 01:29:41;;;;;;;3.55;1.85;;;24.00;60.00;;;;;;4933778;28;20264;-77
2022/08/12 01:32:13;;;;;;;4.30;2.42;;;24.00;60.30;;;;;;4941414;29;20809;-77
2022/08/12 01:34:48;;;;;;;4.97;2.25;;;23.90;60.40;;;;;;4933714;28;20780;-77
2022/08/12 01:37:19;;;;;;;6.65;2.75;;;23.90;60.50;;;;;;4940007;29;20185;-77
2022/08/12 01:39:52;;;;;;;3.35;2.30;;;23.90;60.80;;;;;;4939484;28;20902;-77
2022/08/12 01:42:45;;;;;;;5.88;2.80;;;23.80;61.00;;;;;;4931740;28;20238;-74
2022/08/12 01:45:16;;;;;;;4.32;2.72;;;23.70;61.10;;;;;;4936113;28;20194;-77
2022/08/12 01:48:04;;;;;;;8.45;2.28;;;23.70;61.10;;;;;;4934588;29;20202;-78
2022/08/12 01:50:41;;;;;;;4.78;2.33;;;23.70;61.30;;;;;;4930694;28;20646;-77
2022/08/12 01:53:12;;;;;;;3.53;2.38;;;23.60;61.30;;;;;;4939285;28;20233;-77
2022/08/12 01:55:45;;;;;;;4.90;2.53;;;23.70;61.50;;;;;;4928709;28;20195;-76
2022/08/12 01:58:27;;;;;;;4.13;2.47;;;23.60;61.60;;;;;;4935637;29;20194;-76
2022/08/12 02:01:02;;;;;;;4.43;2.13;;;23.60;61.80;;;;;;4935814;28;20201;-76
2022/08/12 02:13:08;;;;;;;4.90;2.20;;;23.50;62.20;;;;;;4938001;29;20253;-76
2022/08/12 02:15:45;;;;;;;5.72;2.22;;;23.50;62.30;;;;;;4925267;28;20221;-77
2022/08/12 02:18:31;;;;;;;5.22;2.60;;;23.50;62.40;;;;;;4930990;28;20230;-76
2022/08/12 02:21:04;;;;;;;5.68;2.33;;;23.40;62.60;;;;;;4934895;28;20194;-76
2022/08/12 02:23:35;;;;;;;6.43;2.72;;;23.40;62.80;;;;;;4929654;29;20265;-76
2022/08/12 02:26:06;;;;;;;3.70;2.40;;;23.40;62.90;;;;;;4932054;28;20190;-75
2022/08/12 02:28:37;;;;;;;4.65;2.00;;;23.40;62.90;;;;;;4937108;29;20199;-76
2022/08/12 02:31:08;;;;;;;7.63;2.47;;;23.40;63.00;;;;;;4931980;28;20230;-76
2022/08/12 02:33:38;;;;;;;5.88;2.42;;;23.40;63.10;;;;;;4939472;29;20553;-76
2022/08/12 02:36:07;;;;;;;3.45;1.98;;;23.30;63.30;;;;;;4935543;28;20421;-76
2022/08/12 02:38:36;;;;;;;6.57;2.70;;;23.30;63.40;;;;;;4938057;28;20191;-76
2022/08/12 02:41:07;;;;;;;10.93;2.92;;;23.30;63.50;;;;;;4936718;28;20201;-76
2022/08/12 02:43:45;;;;;;;7.57;2.90;;;23.30;63.60;;;;;;4933855;28;20210;-76
2022/08/12 02:46:18;;;;;;;9.98;2.70;;;23.20;63.50;;;;;;4936957;29;20606;-77
2022/08/12 02:48:51;;;;;;;6.63;2.92;;;23.20;63.60;;;;;;4935922;28;20873;-77
2022/08/12 02:51:23;;;;;;;4.63;2.53;;;23.20;63.60;;;;;;4932543;28;20206;-76
2022/08/12 02:53:52;;;;;;;6.30;2.70;;;23.20;63.60;;;;;;4938932;29;20191;-76
2022/08/12 02:56:36;;;;;;;4.72;2.90;;;23.20;63.70;;;;;;4937203;29;20202;-76
2022/08/12 02:59:10;;;;;;;6.20;2.90;;;23.20;63.70;;;;;;4936089;28;20772;-76
2022/08/12 03:01:45;;;;;;;6.35;2.85;;;23.20;63.80;;;;;;4934251;28;20225;-77
2022/08/12 03:04:23;;;;;;;6.57;2.90;;;23.20;63.80;;;;;;4939655;28;20214;-76
2022/08/12 03:07:04;;;;;;;6.85;3.03;;;23.20;64.10;;;;;;4940192;28;20936;-77
2022/08/12 03:09:38;;;;;;;5.55;3.00;;;23.10;64.10;;;;;;4937136;28;20200;-77
2022/08/12 03:12:27;;;;;;;5.38;2.83;;;23.10;64.10;;;;;;4942875;28;20195;-76
2022/08/12 03:15:08;;;;;;;5.95;2.85;;;23.10;64.10;;;;;;4943025;29;20212;-77
2022/08/12 03:17:46;;;;;;;9.57;2.78;;;23.00;64.10;;;;;;4942028;28;20214;-76
2022/08/12 03:20:39;;;;;;;4.97;2.90;;;23.00;64.20;;;;;;4938047;28;20226;-76
2022/08/12 03:23:10;;;;;;;4.90;2.63;;;23.00;64.20;;;;;;4942970;29;20190;-78
2022/08/12 03:25:58;;;;;;;5.90;2.50;;;23.00;64.30;;;;;;4935355;29;20209;-77
2022/08/12 03:31:16;;;;;;;5.07;2.80;;;22.90;64.40;;;;;;4933915;29;20199;-77
2022/08/12 03:33:47;;;;;;;7.72;3.13;;;22.90;64.40;;;;;;4940300;28;20591;-77
2022/08/12 03:36:29;;;;;;;8.63;3.13;;;22.90;64.50;;;;;;4942692;29;20667;-76
2022/08/12 03:39:20;;;;;;;12.20;3.10;;;22.90;64.50;;;;;;4937659;29;20224;-75
2022/08/12 03:42:26;;;;;;;8.15;3.30;;;22.90;64.60;;;;;;4937817;29;20187;-77
2022/08/12 04:01:57;;;;;;;7.28;2.95;;;22.70;65.40;;;;;;4938201;29;20194;-75
2022/08/12 04:04:33;;;;;;;9.80;2.67;;;22.70;65.50;;;;;;4938765;28;20826;-75
2022/08/12 04:07:05;;;;;;;6.20;3.05;;;22.70;65.50;;;;;;4933799;29;20231;-77
2022/08/12 04:09:34;;;;;;;5.43;2.20;;;22.80;65.60;;;;;;4930482;29;20190;-75
2022/08/12 04:14:55;;;;;;;9.18;2.70;;;22.80;65.60;;;;;;4939868;29;20206;-75
2022/08/12 04:17:25;;;;;;;5.13;3.00;;;22.80;65.60;;;;;;4934382;28;20195;-76
2022/08/12 04:19:56;;;;;;;7.32;2.58;;;22.90;65.70;;;;;;4936598;29;20234;-75
2022/08/12 04:22:29;;;;;;;7.53;2.20;;;22.90;65.80;;;;;;4934439;29;20205;-76
2022/08/12 04:25:00;;;;;;;5.13;3.00;;;22.90;65.80;;;;;;4937812;29;20230;-75
2022/08/12 04:27:30;;;;;;;7.70;2.70;;;22.90;66.60;;;;;;4940797;28;20194;-75
2022/08/12 04:30:00;;;;;;;5.50;2.25;;;23.00;66.00;;;;;;4944711;29;20190;-75
2022/08/12 04:32:50;;;;;;;5.85;2.35;;;23.00;65.90;;;;;;4935652;29;20812;-77
2022/08/12 04:35:22;;;;;;;4.80;2.88;;;23.00;65.90;;;;;;4937709;29;20229;-75
2022/08/12 04:37:54;;;;;;;6.85;3.10;;;23.10;66.10;;;;;;4938778;28;20195;-75
2022/08/12 04:40:29;;;;;;;5.68;2.67;;;23.10;66.20;;;;;;4937287;29;20194;-76
2022/08/12 04:42:59;;;;;;;7.50;2.95;;;23.20;66.10;;;;;;4933169;29;20233;-75
2022/08/12 04:45:29;;;;;;;7.68;2.90;;;23.10;66.10;;;;;;4936310;28;20633;-76
2022/08/12 04:47:57;;;;;;;5.28;2.67;;;23.20;66.00;;;;;;4941762;28;20202;-75
2022/08/12 04:50:29;;;;;;;6.03;2.60;;;23.20;66.10;;;;;;4938197;29;20834;-76
2022/08/12 04:53:05;;;;;;;8.77;2.83;;;23.20;66.10;;;;;;4931884;29;20273;-75
2022/08/12 04:55:36;;;;;;;8.25;2.85;;;23.30;66.20;;;;;;4937196;29;20206;-75
2022/08/12 04:58:05;;;;;;;9.27;3.00;;;23.30;66.20;;;;;;4937242;28;20199;-75
2022/08/12 05:00:34;;;;;;;10.27;2.60;;;23.30;66.20;;;;;;4940688;29;20190;-75
2022/08/12 05:03:04;;;;;;;8.77;2.80;;;23.40;66.10;;;;;;4933303;28;20190;-75
2022/08/12 05:05:35;;;;;;;8.43;2.75;;;23.40;66.10;;;;;;4938792;29;20273;-75
2022/08/12 05:08:06;;;;;;;7.38;3.00;;;23.40;66.10;;;;;;4935667;29;20277;-75
2022/08/12 05:10:35;;;;;;;6.85;2.78;;;23.50;66.00;;;;;;4939834;29;20199;-74
2022/08/12 05:13:08;;;;;;;8.15;2.90;;;23.50;65.90;;;;;;4933960;28;20748;-75
2022/08/12 05:15:39;;;;;;;8.75;2.60;;;23.60;66.00;;;;;;4934344;29;20205;-75
2022/08/12 05:18:28;;;;;;;17.13;2.72;;;23.60;65.90;;;;;;4940599;29;20242;-74
2022/08/12 05:20:59;;;;;;;14.05;3.40;;;23.70;66.00;;;;;;4927520;29;20195;-75
2022/08/12 05:23:30;;;;;;;12.52;2.70;;;23.70;65.80;;;;;;4933473;28;20202;-76
2022/08/12 05:26:00;;;;;;;9.82;2.70;;;23.70;65.70;;;;;;4940279;28;20218;-75
2022/08/12 05:28:32;;;;;;;6.43;2.58;;;23.80;65.60;;;;;;4938266;28;20281;-74
2022/08/12 05:31:01;;;;;;;4.65;2.10;;;23.90;65.60;;;;;;4945592;29;20230;-75
2022/08/12 05:33:36;;;;;;;7.30;2.72;;;23.90;65.40;;;;;;4939547;29;20649;-75
2022/08/12 05:36:08;;;;;;;3.35;2.20;;;24.00;65.30;;;;;;4947651;29;20528;-75
2022/08/12 05:41:24;;;;;;;4.85;2.17;;;24.10;65.00;;;;;;4943269;29;20222;-77
2022/08/12 05:43:54;;;;;;;4.90;1.90;;;24.10;64.90;;;;;;4941159;28;20195;-75
2022/08/12 05:46:24;;;;;;;7.95;2.40;;;24.20;64.80;;;;;;4940192;28;20225;-75
2022/08/12 05:48:55;;;;;;;5.05;2.10;;;24.30;64.70;;;;;;4938369;28;20213;-75
2022/08/12 05:51:26;;;;;;;4.15;2.28;;;24.30;64.50;;;;;;4934462;29;20201;-75
2022/08/12 05:54:09;;;;;;;6.78;1.92;;;24.40;64.50;;;;;;4936231;29;20286;-74
2022/08/12 05:56:38;;;;;;;3.15;1.77;;;24.50;64.50;;;;;;4934052;29;20214;-74
2022/08/12 05:59:09;;;;;;;5.68;1.90;;;24.60;64.40;;;;;;4937240;29;20685;-74
2022/08/12 06:01:39;;;;;;;2.22;1.60;;;24.70;64.40;;;;;;4939804;29;20822;-74
2022/08/12 06:04:27;;;;;;;4.35;2.15;;;24.70;64.00;;;;;;4932987;28;20202;-75
2022/08/12 06:06:57;;;;;;;6.07;1.73;;;24.80;63.50;;;;;;4937356;28;20202;-75
2022/08/12 06:09:29;;;;;;;5.80;1.42;;;24.90;63.30;;;;;;4940866;29;20256;-76
2022/08/12 06:11:58;;;;;;;6.63;2.20;;;25.00;63.10;;;;;;4930822;28;20552;-75
2022/08/12 06:14:35;;;;;;;3.03;1.90;;;25.10;62.50;;;;;;4932397;29;20205;-75
2022/08/12 06:17:07;;;;;;;4.85;2.10;;;25.20;62.50;;;;;;4929117;28;20187;-75
2022/08/12 06:19:37;;;;;;;5.28;1.85;;;25.20;62.50;;;;;;4941362;28;20230;-75
2022/08/12 06:22:27;;;;;;;2.55;1.60;;;25.30;62.10;;;;;;4932897;28;20201;-75
2022/08/12 06:24:55;;;;;;;3.42;1.88;;;25.40;61.70;;;;;;4941570;29;20214;-75
2022/08/12 06:27:24;;;;;;;2.45;1.60;;;25.40;61.50;;;;;;4932130;28;20199;-75
2022/08/12 06:29:52;;;;;;;2.38;1.63;;;25.50;61.20;;;;;;4931280;28;20194;-75
2022/08/12 06:32:38;;;;;;;5.88;1.85;;;25.60;61.10;;;;;;4935815;29;20717;-74
2022/08/12 06:35:27;;;;;;;4.82;1.52;;;25.70;60.80;;;;;;4933903;29;20195;-74
2022/08/12 06:38:19;;;;;;;7.57;2.83;;;25.70;60.80;;;;;;4929654;29;20913;-74
2022/08/12 06:43:35;;;;;;;1.00;0.40;;;25.00;73.80;;;;;;4938487;28;20712;-74
2022/08/12 06:46:25;;;;;;;0.30;0.30;;;24.60;74.40;;;;;;4935876;28;20282;-74
2022/08/12 06:48:57;;;;;;;1.23;0.50;;;24.30;76.60;;;;;;4937700;28;20213;-74
2022/08/12 06:51:28;;;;;;;0.10;0.10;;;24.10;77.20;;;;;;4935726;28;20194;-74
2022/08/12 06:53:58;;;;;;;0.10;0.10;;;23.90;77.50;;;;;;4942583;29;20217;-74
2022/08/12 06:56:27;;;;;;;0.13;0.13;;;23.90;78.50;;;;;;4937370;28;20704;-74
2022/08/12 06:59:15;;;;;;;0.30;0.20;;;23.80;79.90;;;;;;4933284;28;20202;-75
2022/08/12 07:01:44;;;;;;;0.10;0.10;;;23.80;80.40;;;;;;4937574;28;20202;-74
2022/08/12 07:04:20;;;;;;;0.20;0.20;;;23.80;81.20;;;;;;4929890;29;20703;-75
2022/08/12 07:07:07;;;;;;;0.10;0.10;;;23.80;82.40;;;;;;4936909;28;20246;-73
2022/08/12 07:09:38;;;;;;;0.20;0.20;;;23.90;83.80;;;;;;4936204;29;20297;-74
2022/08/12 07:12:26;;;;;;;0.20;0.20;;;24.00;84.50;;;;;;4936345;29;20195;-74
2022/08/12 07:14:57;;;;;;;0.10;0.10;;;24.10;84.80;;;;;;4940285;28;20230;-74
2022/08/12 07:17:30;;;;;;;0.10;0.10;;;24.20;84.70;;;;;;4932331;28;20194;-73
2022/08/12 07:19:58;;;;;;;0.22;0.22;;;24.20;85.00;;;;;;4897899;29;20200;-73
2022/08/12 07:22:32;;;;;;;0.22;0.22;;;24.30;85.70;;;;;;4908680;29;20239;-74
2022/08/12 07:27:52;;;;;;;0.25;0.25;;;24.30;86.50;;;;;;4904419;29;20674;-74
2022/08/12 07:30:21;;;;;;;0.82;0.82;;;24.50;86.10;;;;;;4899625;29;20198;-74
2022/08/12 07:32:51;;;;;;;0.20;0.20;;;24.50;85.60;;;;;;4900790;29;20204;-73
2022/08/12 07:35:19;;;;;;;0.15;0.15;;;24.60;85.50;;;;;;4907291;29;20287;-75
2022/08/12 07:37:50;;;;;;;0.28;0.28;;;24.70;85.80;;;;;;4899441;29;20192;-74
2022/08/12 07:40:20;;;;;;;1.02;0.22;;;24.70;85.20;;;;;;4909651;29;20200;-73
2022/08/12 07:42:49;;;;;;;0.10;0.10;;;24.80;85.50;;;;;;4901198;29;20208;-73
2022/08/12 07:45:19;;;;;;;0.15;0.15;;;24.80;83.90;;;;;;4902330;29;20200;-73
2022/08/12 07:47:48;;;;;;;0.10;0.10;;;25.00;81.60;;;;;;4896449;29;20212;-74
2022/08/12 07:50:19;;;;;;;0.20;0.20;;;25.10;81.40;;;;;;4897523;29;20883;-74
2022/08/12 07:52:51;;;;;;;0.50;0.30;;;25.10;81.10;;;;;;4908098;29;20692;-73
2022/08/12 07:55:21;;;;;;;0.63;0.55;;;25.20;79.70;;;;;;4905095;29;20206;-73
2022/08/12 07:57:53;;;;;;;0.32;0.20;;;25.30;76.40;;;;;;4905805;29;20196;-73
2022/08/12 08:00:21;;;;;;;0.60;0.60;;;25.40;75.30;;;;;;4903910;29;20204;-74
2022/08/12 08:02:53;;;;;;;0.32;0.30;;;25.50;74.40;;;;;;4891460;29;20204;-73
2022/08/12 08:05:23;;;;;;;0.20;0.20;;;25.60;74.50;;;;;;4892829;29;20197;-73
2022/08/12 08:07:54;;;;;;;0.32;0.32;;;25.70;73.30;;;;;;4902548;29;20682;-73
2022/08/12 08:10:25;;;;;;;0.10;0.10;;;25.80;72.00;;;;;;4904939;29;20192;-73
2022/08/12 08:12:52;;;;;;;0.10;0.10;;;26.00;71.90;;;;;;4903771;29;20233;-74
2022/08/12 08:15:21;;;;;;;0.20;0.20;;;26.00;70.50;;;;;;4905319;29;20215;-74
2022/08/12 08:18:12;;;;;;;0.15;0.15;;;26.10;69.70;;;;;;4907631;28;20226;-74
2022/08/12 08:20:54;;;;;;;0.20;0.20;;;26.20;69.40;;;;;;4943303;29;20286;-73
2022/08/12 08:24:13;;;;;;;0.65;0.63;;;26.40;69.20;;;;;;4941074;29;20278;-74
2022/08/12 08:26:19;;;;;;;0.20;0.20;;;26.50;68.60;;;;;;4945099;28;20249;-74
2022/08/12 08:28:48;;;;;;;1.60;0.77;;;26.60;68.70;;;;;;4942328;29;20578;-74
2022/08/12 08:31:17;;;;;;;3.88;1.40;;;26.70;66.60;;;;;;4944438;28;20199;-74
2022/08/12 08:33:45;;;;;;;3.45;1.95;;;26.70;66.10;;;;;;4940776;28;20195;-74
2022/08/12 08:36:34;;;;;;;2.65;1.48;;;26.90;66.30;;;;;;4935905;29;20207;-75
2022/08/12 08:39:04;;;;;;;2.30;1.40;;;26.90;64.40;;;;;;4934678;28;20195;-73
2022/08/12 08:44:40;;;;;;;3.38;1.55;;;27.10;63.30;;;;;;4937110;29;20198;-74
2022/08/12 08:47:12;;;;;;;1.60;1.30;;;27.20;62.90;;;;;;4939344;29;20222;-75
2022/08/12 08:49:41;;;;;;;5.57;1.92;;;27.30;62.20;;;;;;4939797;28;20190;-74
2022/08/12 08:52:11;;;;;;;1.83;1.25;;;27.40;61.70;;;;;;4939353;28;20190;-74
2022/08/12 08:54:59;;;;;;;2.70;1.58;;;27.50;61.20;;;;;;4937558;28;20221;-74
2022/08/12 08:57:29;;;;;;;5.15;1.83;;;27.50;59.40;;;;;;4939676;29;20221;-74
2022/08/12 09:00:13;;;;;;;4.28;1.52;;;27.60;57.30;;;;;;4935660;29;20190;-74
2022/08/12 09:02:43;;;;;;;2.53;1.50;;;27.70;58.00;;;;;;4936398;29;20195;-75
2022/08/12 09:05:25;;;;;;;2.38;1.60;;;27.70;57.70;;;;;;4934122;29;20249;-74
2022/08/12 09:07:55;;;;;;;3.72;1.52;;;27.80;57.90;;;;;;4933977;28;20290;-74
2022/08/12 09:10:41;;;;;;;2.90;1.40;;;27.90;57.60;;;;;;4929968;28;20212;-74
2022/08/12 09:13:30;;;;;;;2.88;1.60;;;28.00;57.90;;;;;;4937439;29;20281;-73
2022/08/12 09:16:19;;;;;;;3.13;1.65;;;28.10;57.60;;;;;;4933325;28;20213;-74
2022/08/12 09:18:48;;;;;;;3.78;1.33;;;28.10;57.00;;;;;;4951173;28;20214;-73
2022/08/12 09:21:20;;;;;;;1.63;1.33;;;28.20;56.60;;;;;;4929838;28;20196;-73
2022/08/12 09:24:08;;;;;;;1.73;1.40;;;28.30;56.20;;;;;;4936882;29;20206;-75
2022/08/12 09:26:37;;;;;;;1.98;1.40;;;28.30;56.20;;;;;;4940358;29;20303;-75
2022/08/12 09:29:19;;;;;;;3.40;1.65;;;28.40;55.40;;;;;;4940492;28;20202;-73
2022/08/12 09:32:08;;;;;;;2.10;1.50;;;28.50;55.60;;;;;;4931426;28;20191;-74
2022/08/12 09:34:56;;;;;;;2.53;1.65;;;28.50;55.50;;;;;;4932543;28;20564;-75
2022/08/12 09:37:27;;;;;;;2.42;1.45;;;28.60;55.60;;;;;;4937596;29;20198;-74
2022/08/12 09:40:16;;;;;;;3.25;1.67;;;28.60;55.40;;;;;;4935445;29;20207;-74
2022/08/12 09:45:53;;;;;;;2.30;1.50;;;28.80;53.50;;;;;;4933438;28;20280;-73
2022/08/12 09:48:43;;;;;;;6.03;1.60;;;28.80;53.20;;;;;;4933334;29;20206;-73
2022/08/12 09:51:25;;;;;;;3.75;1.55;;;28.90;53.80;;;;;;4941001;28;20218;-74
2022/08/12 09:54:11;;;;;;;2.67;1.40;;;29.00;53.50;;;;;;4931994;28;20235;-73
2022/08/12 09:57:00;;;;;;;5.55;1.33;;;29.10;53.80;;;;;;4933644;28;20202;-74
2022/08/12 09:59:48;;;;;;;1.50;1.30;;;29.20;53.60;;;;;;4929493;29;20637;-74
2022/08/12 10:02:38;;;;;;;6.38;1.48;;;29.30;53.20;;;;;;4934714;28;20253;-73
2022/08/12 10:05:21;;;;;;;1.75;1.35;;;29.40;52.70;;;;;;4945190;29;20198;-73
2022/08/12 10:08:12;;;;;;;4.65;1.40;;;29.50;53.30;;;;;;4930443;29;20256;-73
2022/08/12 10:13:43;;;;;;;3.78;1.63;;;29.70;52.90;;;;;;4936007;29;20229;-75
2022/08/12 10:16:13;;;;;;;1.95;1.35;;;29.80;52.00;;;;;;4941355;28;20198;-74
2022/08/12 10:18:54;;;;;;;5.88;1.70;;;29.80;51.30;;;;;;4934213;29;20310;-73
2022/08/12 10:21:25;;;;;;;2.20;1.40;;;29.90;51.40;;;;;;4934411;29;20188;-74
2022/08/12 10:24:04;;;;;;;2.90;1.40;;;30.00;51.60;;;;;;4935921;28;20558;-73
2022/08/12 10:29:40;;;;;;;1.95;1.30;;;30.10;51.10;;;;;;4935790;28;20680;-74
2022/08/12 10:32:29;;;;;;;2.85;1.77;;;30.20;50.70;;;;;;4932813;28;20656;-73
2022/08/12 10:35:16;;;;;;;2.63;1.40;;;30.30;49.90;;;;;;4935451;28;20282;-74
2022/08/12 10:37:45;;;;;;;2.67;1.40;;;30.40;50.70;;;;;;4932904;28;20190;-73
2022/08/12 10:43:39;;;;;;;2.95;1.70;;;30.50;50.90;;;;;;4936086;28;20258;-73
2022/08/12 10:43:41;;;;;;;1.90;1.40;;;30.60;51.00;;;;;;4933244;29;20208;-73
2022/08/12 10:46:24;;;;;;;3.60;1.50;;;30.70;51.00;;;;;;4935059;29;20210;-74
2022/08/12 10:48:59;;;;;;;2.10;1.20;;;30.70;49.40;;;;;;4934275;29;20229;-72
2022/08/12 10:51:51;;;;;;;3.53;1.40;;;30.80;48.10;;;;;;4938241;29;20878;-73
2022/08/12 10:54:41;;;;;;;5.75;1.17;;;30.80;48.00;;;;;;4940654;28;20209;-72
2022/08/12 10:57:10;;;;;;;2.58;1.30;;;30.90;47.50;;;;;;4941339;28;20283;-74
2022/08/12 10:59:58;;;;;;;2.88;1.20;;;30.90;47.90;;;;;;4936108;28;20255;-74
2022/08/12 11:02:53;;;;;;;1.77;1.30;;;31.10;48.50;;;;;;4939418;29;20190;-75
2022/08/12 11:05:43;;;;;;;2.60;1.30;;;31.10;48.50;;;;;;4932106;28;21067;-75
2022/08/12 11:08:34;;;;;;;5.55;1.60;;;31.20;48.10;;;;;;4937518;29;20226;-74
2022/08/12 11:11:16;;;;;;;3.15;1.30;;;31.20;48.20;;;;;;4939625;29;20234;-74
2022/08/12 11:14:05;;;;;;;2.55;1.30;;;31.30;48.50;;;;;;4940463;29;20221;-74
2022/08/12 11:16:57;;;;;;;1.80;1.30;;;31.40;48.00;;;;;;4942498;28;20246;-73
2022/08/12 11:19:46;;;;;;;2.25;1.48;;;31.40;48.30;;;;;;4942750;29;20629;-76
2022/08/12 11:22:15;;;;;;;2.13;1.50;;;31.40;47.70;;;;;;4936694;28;20242;-73
2022/08/12 11:24:46;;;;;;;2.42;1.40;;;31.50;47.20;;;;;;4939629;29;20265;-73
2022/08/12 11:27:19;;;;;;;3.05;1.40;;;31.50;47.10;;;;;;4933455;29;20197;-75
2022/08/12 11:29:48;;;;;;;2.65;1.65;;;31.60;47.50;;;;;;4934810;28;20285;-74
2022/08/12 11:32:34;;;;;;;2.78;1.48;;;31.60;47.30;;;;;;4940615;28;21222;-74
2022/08/12 11:35:07;;;;;;;2.63;1.50;;;31.70;47.40;;;;;;4934678;29;20210;-75
2022/08/12 11:37:39;;;;;;;2.63;1.55;;;31.70;47.10;;;;;;4942199;28;20763;-73
2022/08/12 11:40:28;;;;;;;4.50;1.70;;;31.70;47.30;;;;;;4945825;29;20199;-73
2022/08/12 11:42:57;;;;;;;3.50;2.10;;;31.80;47.20;;;;;;4942576;28;20610;-74
2022/08/12 11:45:45;;;;;;;4.18;1.58;;;31.80;47.10;;;;;;4934423;28;20897;-73
2022/08/12 11:48:20;;;;;;;4.38;1.52;;;31.90;47.00;;;;;;4940979;29;20213;-73
2022/08/12 11:50:54;;;;;;;7.05;1.55;;;32.00;47.10;;;;;;4942712;29;20195;-74
2022/08/12 11:53:23;;;;;;;2.05;1.20;;;32.00;46.80;;;;;;4940871;28;20289;-73
2022/08/12 11:56:13;;;;;;;2.72;1.30;;;32.00;46.90;;;;;;4937170;28;20774;-73
2022/08/12 11:58:41;;;;;;;5.03;1.50;;;32.00;46.20;;;;;;4938425;28;20191;-73
2022/08/12 12:01:30;;;;;;;4.07;1.77;;;32.00;46.20;;;;;;4931241;29;20191;-73
2022/08/12 12:04:18;;;;;;;3.97;1.55;;;31.90;46.40;;;;;;4935504;29;20198;-73
2022/08/12 12:06:57;;;;;;;2.78;1.63;;;31.90;46.60;;;;;;4945976;29;20229;-74
2022/08/12 12:09:35;;;;;;;4.80;1.70;;;32.00;46.60;;;;;;4936360;28;20242;-73
2022/08/12 12:12:23;;;;;;;2.88;1.48;;;32.10;46.70;;;;;;4933928;29;20237;-73
2022/08/12 12:14:52;;;;;;;2.30;1.38;;;32.20;46.80;;;;;;4934560;29;20203;-73
2022/08/12 12:17:22;;;;;;;2.53;1.45;;;32.20;46.80;;;;;;4931181;28;20226;-72
2022/08/12 12:19:51;;;;;;;2.35;1.20;;;32.40;46.40;;;;;;4928546;28;20242;-73
2022/08/12 12:22:21;;;;;;;5.72;1.65;;;32.40;46.10;;;;;;4931907;29;20195;-72
2022/08/12 12:24:54;;;;;;;4.70;1.40;;;32.50;46.20;;;;;;4940948;28;20198;-73
2022/08/12 12:27:24;;;;;;;4.38;1.73;;;32.50;45.60;;;;;;4940891;28;20206;-73
2022/08/12 12:30:12;;;;;;;4.15;1.45;;;32.50;45.70;;;;;;4936220;29;20195;-73
2022/08/12 12:32:57;;;;;;;2.97;1.15;;;32.60;46.10;;;;;;4936341;28;20206;-73
2022/08/12 12:35:25;;;;;;;2.85;1.55;;;32.70;45.70;;;;;;4935244;28;20235;-73
2022/08/12 12:38:15;;;;;;;3.20;1.30;;;32.70;45.80;;;;;;4938950;29;20198;-72
2022/08/12 12:40:46;;;;;;;2.45;1.63;;;32.70;45.30;;;;;;4934289;29;20203;-72
2022/08/12 12:43:19;;;;;;;3.25;1.90;;;32.70;44.80;;;;;;4937015;28;20262;-73
2022/08/12 12:45:56;;;;;;;2.78;1.40;;;32.80;44.70;;;;;;4937043;28;20277;-73
2022/08/12 12:48:24;;;;;;;2.13;1.30;;;32.80;44.40;;;;;;4926818;29;20234;-73
2022/08/12 12:53:41;;;;;;;6.82;1.70;;;32.80;44.30;;;;;;4930780;28;20198;-74
2022/08/12 12:56:30;;;;;;;3.03;1.63;;;32.90;44.60;;;;;;4937391;29;20201;-75
2022/08/12 12:59:04;;;;;;;2.95;1.45;;;32.90;45.00;;;;;;4936376;29;20190;-73
2022/08/12 13:01:37;;;;;;;2.10;1.40;;;32.90;44.90;;;;;;4932172;28;20210;-76
2022/08/12 13:11:51;;;;;;;3.17;1.38;;;32.90;44.30;;;;;;4943076;28;20306;-76
2022/08/12 13:14:22;;;;;;;2.40;1.42;;;32.90;44.30;;;;;;4945920;29;20818;-76
2022/08/12 13:16:59;;;;;;;4.78;1.50;;;33.00;44.20;;;;;;4938888;28;20237;-76
2022/08/12 13:19:30;;;;;;;3.25;1.40;;;33.10;44.30;;;;;;4938871;29;20246;-76
2022/08/12 13:22:16;;;;;;;5.30;1.48;;;33.10;44.20;;;;;;4938583;29;20205;-77
2022/08/12 13:24:49;;;;;;;2.50;1.65;;;33.10;44.40;;;;;;4946145;29;20237;-77
2022/08/12 13:27:27;;;;;;;5.22;1.38;;;33.20;43.80;;;;;;4945049;29;20875;-76
2022/08/12 13:30:06;;;;;;;2.55;1.30;;;33.20;43.40;;;;;;4943057;28;20312;-77
2022/08/12 13:32:39;;;;;;;2.50;1.48;;;33.20;43.60;;;;;;4938283;29;20766;-76
2022/08/12 13:35:09;;;;;;;2.70;1.58;;;33.30;43.70;;;;;;4938559;29;20195;-77
2022/08/12 13:37:59;;;;;;;3.55;1.55;;;33.30;43.60;;;;;;4933434;29;20223;-76
2022/08/12 13:40:32;;;;;;;3.63;1.70;;;33.30;43.60;;;;;;4940755;28;20257;-76
2022/08/12 13:43:05;;;;;;;2.65;1.48;;;33.30;43.20;;;;;;4939732;29;20198;-76
2022/08/12 13:45:35;;;;;;;3.40;1.40;;;33.40;43.20;;;;;;4942964;29;20194;-77
2022/08/12 13:48:05;;;;;;;2.00;1.38;;;33.40;43.30;;;;;;4942722;28;20673;-76
2022/08/12 13:50:36;;;;;;;2.88;1.65;;;33.40;43.40;;;;;;4944315;28;20222;-77
2022/08/12 13:53:08;;;;;;;3.75;1.50;;;33.50;43.50;;;;;;4941213;29;20195;-77
2022/08/12 13:55:53;;;;;;;5.80;2.03;;;33.40;43.30;;;;;;4945208;28;20294;-77
2022/08/12 13:58:30;;;;;;;2.30;1.90;;;33.60;42.90;;;;;;4938831;28;20784;-77
2022/08/12 14:01:04;;;;;;;2.20;1.60;;;33.60;42.10;;;;;;4927330;28;20235;-79
2022/08/12 14:03:39;;;;;;;2.15;1.40;;;33.60;42.30;;;;;;4942141;28;20288;-77
2022/08/12 14:06:19;;;;;;;5.38;1.40;;;33.70;42.20;;;;;;4938914;28;20277;-77
2022/08/12 14:08:48;;;;;;;2.85;1.10;;;33.60;42.40;;;;;;4933643;28;20222;-78
2022/08/12 14:11:18;;;;;;;3.90;1.52;;;33.60;42.40;;;;;;4929307;29;20198;-75
2022/08/12 14:13:58;;;;;;;1.60;1.30;;;33.60;41.70;;;;;;4938812;28;20603;-76
2022/08/12 14:16:41;;;;;;;3.17;1.40;;;33.60;42.10;;;;;;4931712;28;20276;-77
2022/08/12 14:19:18;;;;;;;2.25;1.58;;;33.70;41.50;;;;;;4936170;28;20234;-75
2022/08/12 14:22:03;;;;;;;11.98;1.92;;;33.80;41.20;;;;;;4930942;28;20646;-75
2022/08/12 14:24:36;;;;;;;1.35;1.00;;;33.80;41.30;;;;;;4928070;28;20961;-75
2022/08/12 14:27:09;;;;;;;2.55;1.40;;;33.80;41.70;;;;;;4931222;28;20197;-76
2022/08/12 14:29:40;;;;;;;3.20;1.50;;;33.80;41.80;;;;;;4938395;28;20210;-73
2022/08/12 14:32:36;;;;;;;3.28;1.40;;;33.80;41.80;;;;;;4930099;28;20206;-74
2022/08/12 14:35:10;;;;;;;1.85;1.10;;;33.90;41.70;;;;;;4939872;28;20194;-74
2022/08/12 14:37:41;;;;;;;4.15;1.65;;;34.00;41.30;;;;;;4936768;29;20222;-76
2022/08/12 14:40:33;;;;;;;2.50;1.48;;;34.90;40.80;;;;;;4944392;28;20221;-74
2022/08/12 14:43:02;;;;;;;4.95;1.30;;;35.80;39.70;;;;;;4945322;28;20202;-73
2022/08/12 14:45:35;;;;;;;4.20;1.42;;;35.20;40.20;;;;;;4938297;28;20206;-74
2022/08/12 14:48:19;;;;;;;3.17;1.45;;;35.00;40.40;;;;;;4934566;29;20291;-75
2022/08/12 14:50:52;;;;;;;1.98;1.45;;;34.90;40.50;;;;;;4936234;28;20217;-73
2022/08/12 14:53:43;;;;;;;2.95;1.58;;;34.70;39.90;;;;;;4940136;28;20202;-74
2022/08/12 14:56:31;;;;;;;7.55;1.92;;;34.70;40.20;;;;;;4940440;28;20206;-74
2022/08/12 15:02:28;;;;;;;2.13;1.67;;;34.70;40.30;;;;;;4938295;28;20931;-76
2022/08/12 15:05:01;;;;;;;4.75;1.42;;;34.60;40.00;;;;;;4941049;28;20222;-74
2022/08/12 15:07:31;;;;;;;5.88;1.50;;;34.70;40.00;;;;;;4942752;28;20197;-75
2022/08/12 15:10:19;;;;;;;1.67;1.27;;;35.40;40.00;;;;;;4938650;28;20222;-74
2022/08/12 15:13:05;;;;;;;7.63;2.15;;;35.70;38.90;;;;;;4937114;29;20194;-74
2022/08/12 15:15:37;;;;;;;3.38;1.67;;;35.40;39.30;;;;;;4942352;28;20190;-74
2022/08/12 15:18:14;;;;;;;4.05;1.40;;;35.20;39.80;;;;;;4942901;28;20317;-74
2022/08/12 15:20:51;;;;;;;2.25;1.52;;;35.00;39.70;;;;;;4937528;29;20190;-74
2022/08/12 15:23:22;;;;;;;4.18;1.75;;;35.00;39.90;;;;;;4937148;28;20304;-75
2022/08/12 15:25:57;;;;;;;2.72;1.58;;;34.80;39.20;;;;;;4930449;28;20203;-74
2022/08/12 15:28:32;;;;;;;2.90;1.70;;;34.80;38.90;;;;;;4936824;28;20595;-74
2022/08/12 15:31:02;;;;;;;3.50;1.52;;;34.60;39.30;;;;;;4935321;29;20881;-74